Time;durP1;ratioP1;P1;durP2;ratioP2;P2;SDS_P1;SDS_P2;PMS_P1;PMS_P2;Temp;Humidity;BMP_temperature;BMP_pressure;BME280_temperature;BME280_humidity;BME280_pressure;Samples;Min_cycle;Max_cycle;Signal;HPM_P1;HPM_P2
2024/03/11 00:05:27;;;;;;;1.90;0.70;;;8.40;52.30;;;;;;5134449;27;20163;-66
2024/03/11 00:07:56;;;;;;;2.83;0.90;;;8.50;52.20;;;;;;5134650;27;20188;-66
2024/03/11 00:10:24;;;;;;;1.90;0.90;;;8.40;51.90;;;;;;5136057;27;20209;-66
2024/03/11 00:12:53;;;;;;;2.60;1.17;;;8.40;52.00;;;;;;5124070;27;20761;-67
2024/03/11 00:16:09;;;;;;;3.47;0.98;;;8.40;51.90;;;;;;5114274;28;20195;-66
2024/03/11 00:22:00;;;;;;;2.75;0.60;;;8.20;51.60;;;;;;5114313;28;20164;-65
2024/03/11 00:27:50;;;;;;;1.90;0.70;;;8.00;51.60;;;;;;5114194;28;20349;-66
2024/03/11 00:33:42;;;;;;;1.80;0.60;;;7.90;52.00;;;;;;5113362;28;20211;-66
2024/03/11 00:39:34;;;;;;;2.10;0.80;;;7.70;52.50;;;;;;5113946;28;20151;-65
2024/03/11 00:42:56;;;;;;;1.88;0.70;;;7.70;52.40;;;;;;5114111;28;20180;-65
2024/03/11 00:45:24;;;;;;;1.70;0.50;;;7.60;52.60;;;;;;5113864;28;20192;-65
2024/03/11 00:47:50;;;;;;;1.92;0.60;;;7.60;52.80;;;;;;5113690;28;20184;-65
2024/03/11 00:50:19;;;;;;;1.90;0.80;;;7.60;53.10;;;;;;5113806;28;20219;-66
2024/03/11 00:52:47;;;;;;;2.20;0.80;;;7.60;53.30;;;;;;5113613;28;20225;-65
2024/03/11 00:58:37;;;;;;;1.88;0.80;;;7.60;53.60;;;;;;5113639;28;20163;-66
2024/03/11 01:01:06;;;;;;;1.80;0.60;;;7.60;54.00;;;;;;5113702;28;20185;-66
2024/03/11 01:03:34;;;;;;;1.70;0.60;;;7.70;54.40;;;;;;5105204;28;20669;-66
2024/03/11 01:09:23;;;;;;;2.88;1.00;;;7.70;55.20;;;;;;5134305;28;20186;-67
2024/03/11 01:15:13;;;;;;;1.90;0.70;;;7.70;55.30;;;;;;5134265;28;20152;-66
2024/03/11 01:17:41;;;;;;;1.80;0.70;;;7.60;55.50;;;;;;5133213;28;20168;-66
2024/03/11 01:20:09;;;;;;;1.70;0.60;;;7.60;55.40;;;;;;5113502;28;20176;-67
2024/03/11 01:22:37;;;;;;;1.80;0.65;;;7.70;55.40;;;;;;5114320;28;20184;-67
2024/03/11 01:25:33;;;;;;;2.17;0.80;;;7.70;55.40;;;;;;5113601;28;20176;-65
2024/03/11 01:28:02;;;;;;;2.20;0.95;;;7.70;55.50;;;;;;5114266;28;20176;-65
2024/03/11 01:30:31;;;;;;;3.72;0.90;;;7.70;55.30;;;;;;5116676;28;20180;-65
2024/03/11 01:33:43;;;;;;;2.33;1.05;;;7.70;55.40;;;;;;5117835;28;20287;-65
2024/03/11 01:36:11;;;;;;;1.90;0.85;;;7.60;55.50;;;;;;5117839;28;20523;-66
2024/03/11 01:38:39;;;;;;;2.17;0.80;;;7.70;55.50;;;;;;5116845;28;20181;-65
2024/03/11 01:41:07;;;;;;;2.00;0.80;;;7.60;55.60;;;;;;5118038;28;20177;-66
2024/03/11 01:43:35;;;;;;;2.20;0.93;;;7.60;55.70;;;;;;5118288;28;20169;-65
2024/03/11 01:46:07;;;;;;;1.90;0.70;;;7.50;55.90;;;;;;5116805;28;20220;-66
2024/03/11 01:48:34;;;;;;;2.22;1.17;;;7.40;56.10;;;;;;5116831;28;20234;-67
2024/03/11 01:51:07;;;;;;;2.10;0.95;;;7.30;56.30;;;;;;5117806;28;20527;-66
2024/03/11 01:53:35;;;;;;;2.25;0.68;;;7.30;56.40;;;;;;5116897;28;20257;-66
2024/03/11 01:56:02;;;;;;;2.95;1.10;;;7.20;56.80;;;;;;5116622;28;20176;-65
2024/03/11 02:01:52;;;;;;;1.83;0.63;;;7.10;57.40;;;;;;5117026;28;20163;-66
2024/03/11 02:11:29;;;;;;;1.90;0.77;;;6.80;58.50;;;;;;5116752;28;20285;-66
2024/03/11 02:13:56;;;;;;;3.40;0.90;;;6.80;59.00;;;;;;5116757;28;20503;-66
2024/03/11 02:19:47;;;;;;;2.10;0.95;;;6.70;59.90;;;;;;5116639;28;20183;-65
2024/03/11 02:25:37;;;;;;;3.65;1.27;;;6.90;60.00;;;;;;5116777;28;20151;-65
2024/03/11 02:31:28;;;;;;;2.53;0.90;;;6.90;60.40;;;;;;5115581;28;20317;-65
2024/03/11 02:34:29;;;;;;;2.10;0.93;;;7.00;60.50;;;;;;5116099;28;20168;-65
2024/03/11 02:36:56;;;;;;;2.65;0.95;;;7.00;59.90;;;;;;5116205;28;20184;-66
2024/03/11 02:39:23;;;;;;;2.20;0.68;;;7.00;59.60;;;;;;5116298;28;20575;-65
2024/03/11 02:45:17;;;;;;;2.30;1.25;;;7.00;58.60;;;;;;5116088;28;20183;-66
2024/03/11 02:51:08;;;;;;;2.38;0.90;;;7.00;57.80;;;;;;5129511;27;20213;-66
2024/03/11 02:53:56;;;;;;;2.40;0.98;;;6.90;57.60;;;;;;5137295;27;20229;-65
2024/03/11 02:59:45;;;;;;;2.30;1.10;;;7.00;58.50;;;;;;5136460;27;20229;-67
2024/03/11 03:05:36;;;;;;;3.90;0.85;;;6.90;58.90;;;;;;5136306;27;20196;-65
2024/03/11 03:19:06;;;;;;;6.85;2.38;;;6.70;59.70;;;;;;5115521;28;20276;-65
2024/03/11 03:21:35;;;;;;;4.53;1.80;;;6.70;59.50;;;;;;5134676;27;20295;-65
2024/03/11 03:24:02;;;;;;;6.85;2.85;;;6.70;59.50;;;;;;5136888;27;20176;-65
2024/03/11 03:26:29;;;;;;;3.40;1.70;;;6.70;59.30;;;;;;5135871;27;20215;-65
2024/03/11 03:28:56;;;;;;;3.40;1.50;;;6.70;59.00;;;;;;5136743;27;20203;-65
2024/03/11 03:34:45;;;;;;;2.42;1.00;;;6.70;58.80;;;;;;5135679;27;20166;-65
2024/03/11 03:37:14;;;;;;;2.85;1.10;;;6.60;58.70;;;;;;5128594;27;20293;-66
2024/03/11 03:39:42;;;;;;;2.33;1.00;;;6.60;58.70;;;;;;5123433;27;20191;-66
2024/03/11 03:42:49;;;;;;;2.33;1.05;;;6.60;58.80;;;;;;5115680;28;20522;-65
2024/03/11 03:48:38;;;;;;;3.65;1.35;;;6.40;58.90;;;;;;5128389;27;20220;-64
2024/03/11 03:51:33;;;;;;;2.63;1.02;;;6.40;59.10;;;;;;5136033;27;20569;-64
2024/03/11 03:57:23;;;;;;;2.33;1.30;;;6.40;58.60;;;;;;5135261;27;20702;-66
2024/03/11 04:03:12;;;;;;;2.58;1.50;;;6.30;59.00;;;;;;5134992;27;20592;-66
2024/03/11 04:09:01;;;;;;;2.72;1.55;;;6.10;59.50;;;;;;5135030;27;20203;-66
2024/03/11 04:12:19;;;;;;;3.47;1.35;;;6.00;59.70;;;;;;5135308;27;20602;-66
2024/03/11 04:18:10;;;;;;;2.38;1.33;;;6.00;60.80;;;;;;5093940;28;20168;-66
2024/03/11 04:23:59;;;;;;;3.60;1.55;;;6.00;60.90;;;;;;5093860;28;20185;-68
2024/03/11 04:27:05;;;;;;;5.65;2.85;;;6.00;61.20;;;;;;5093698;28;20173;-66
2024/03/11 04:29:31;;;;;;;3.38;2.28;;;5.90;60.70;;;;;;5094656;28;20256;-66
2024/03/11 04:31:58;;;;;;;3.20;2.05;;;5.90;60.40;;;;;;5094662;28;20268;-66
2024/03/11 04:37:48;;;;;;;3.53;2.00;;;5.70;59.80;;;;;;5093611;28;20198;-65
2024/03/11 04:43:37;;;;;;;4.60;1.60;;;5.60;60.20;;;;;;5093197;28;20219;-66
2024/03/11 04:46:29;;;;;;;2.70;1.60;;;5.50;61.30;;;;;;5093429;28;20222;-66
2024/03/11 04:52:18;;;;;;;4.68;1.55;;;5.60;63.10;;;;;;5093504;28;20176;-65
2024/03/11 04:58:09;;;;;;;2.67;1.42;;;5.60;63.00;;;;;;5093327;28;20600;-65
2024/03/11 05:03:58;;;;;;;5.25;3.53;;;5.50;62.80;;;;;;5094795;28;20242;-65
2024/03/11 05:07:03;;;;;;;7.00;4.15;;;5.40;63.30;;;;;;5097491;28;20208;-65
2024/03/11 05:09:30;;;;;;;4.63;2.92;;;5.40;63.50;;;;;;5098229;28;20180;-65
2024/03/11 05:11:58;;;;;;;5.55;3.33;;;5.40;63.40;;;;;;5097397;28;20223;-65
2024/03/11 05:21:37;;;;;;;2.90;1.25;;;5.30;62.50;;;;;;5097453;28;20504;-65
2024/03/11 05:24:04;;;;;;;2.50;1.45;;;5.30;62.40;;;;;;5116319;28;20172;-65
2024/03/11 05:26:31;;;;;;;5.35;3.42;;;5.30;62.30;;;;;;5117274;28;20237;-65
2024/03/11 05:29:01;;;;;;;5.50;3.97;;;5.20;62.20;;;;;;5117503;28;20176;-65
2024/03/11 05:34:50;;;;;;;4.05;2.45;;;5.30;61.60;;;;;;5117581;28;20158;-66
2024/03/11 05:37:20;;;;;;;6.15;2.88;;;5.20;61.80;;;;;;5117850;28;20213;-65
2024/03/11 05:43:09;;;;;;;3.50;1.75;;;5.00;62.70;;;;;;5116562;28;20227;-65
2024/03/11 05:49:00;;;;;;;7.45;3.55;;;4.90;63.70;;;;;;5117021;28;20201;-65
2024/03/11 05:51:28;;;;;;;6.95;2.80;;;4.90;63.60;;;;;;5116931;28;20199;-65
2024/03/11 05:54:24;;;;;;;4.97;3.42;;;4.90;63.00;;;;;;5117333;28;20664;-65
2024/03/11 06:00:15;;;;;;;3.30;1.95;;;4.90;62.80;;;;;;5116858;28;20168;-65
2024/03/11 06:02:44;;;;;;;4.57;2.50;;;4.80;63.80;;;;;;5115954;28;20212;-65
2024/03/11 06:08:34;;;;;;;9.80;4.95;;;4.80;65.20;;;;;;5116639;28;20152;-65
2024/03/11 06:14:32;;;;;;;7.47;3.70;;;4.90;65.00;;;;;;5115002;27;20203;-65
2024/03/11 06:20:43;;;;;;;5.60;1.55;;;5.00;65.70;;;;;;5115183;28;20543;-65
2024/03/11 06:23:10;;;;;;;3.55;1.52;;;5.10;65.70;;;;;;5115465;28;20211;-65
2024/03/11 06:32:23;;;;;;;2.80;1.00;;;5.30;66.30;;;;;;5110883;28;20179;-65
2024/03/11 06:45:00;;;;;;;3.03;1.67;;;5.80;64.60;;;;;;5114171;28;20175;-66
2024/03/11 06:50:41;;;;;;;3.45;2.17;;;6.00;64.70;;;;;;5114544;28;20191;-65
2024/03/11 06:56:46;;;;;;;5.80;2.75;;;6.30;64.40;;;;;;5114434;27;20195;-65
2024/03/11 06:59:14;;;;;;;3.75;2.05;;;6.40;65.10;;;;;;5113327;28;20188;-65
2024/03/11 07:01:41;;;;;;;6.82;2.30;;;6.70;64.80;;;;;;5112489;28;20180;-66
2024/03/11 07:04:11;;;;;;;5.40;2.90;;;7.00;64.40;;;;;;5112291;28;20224;-65
2024/03/11 07:10:00;;;;;;;4.22;2.80;;;7.50;61.70;;;;;;5111409;28;20646;-65
2024/03/11 07:12:27;;;;;;;6.97;3.00;;;7.80;60.30;;;;;;5113665;28;20272;-65
2024/03/11 07:14:54;;;;;;;4.85;2.58;;;8.00;59.90;;;;;;5113970;28;20267;-66
2024/03/11 07:18:17;;;;;;;4.18;2.20;;;8.40;60.70;;;;;;5113994;28;20201;-66
2024/03/11 07:20:46;;;;;;;3.78;1.90;;;8.90;59.20;;;;;;5109622;28;20212;-65
2024/03/11 07:23:14;;;;;;;3.10;1.85;;;9.60;58.30;;;;;;5113316;28;20235;-66
2024/03/11 07:25:43;;;;;;;4.55;1.70;;;10.20;56.30;;;;;;5113144;28;20634;-65
2024/03/11 07:28:12;;;;;;;3.97;2.03;;;10.80;54.60;;;;;;5111177;28;20272;-66
2024/03/11 07:30:40;;;;;;;3.70;1.90;;;11.40;53.20;;;;;;5114100;28;20234;-66
2024/03/11 07:33:08;;;;;;;3.95;1.60;;;12.00;53.50;;;;;;5112741;28;20212;-65
2024/03/11 07:35:37;;;;;;;2.90;1.50;;;12.70;53.20;;;;;;5113019;28;20237;-66
2024/03/11 07:38:06;;;;;;;2.50;1.20;;;13.30;50.30;;;;;;5113134;28;20176;-66
2024/03/11 07:40:33;;;;;;;2.63;1.70;;;14.00;48.50;;;;;;5112151;28;20181;-66
2024/03/11 07:43:37;;;;;;;2.87;1.50;;;14.60;46.10;;;;;;5113311;27;20517;-66
2024/03/11 07:46:04;;;;;;;4.10;1.50;;;15.00;42.40;;;;;;5109131;28;20788;-66
2024/03/11 07:48:32;;;;;;;2.90;1.60;;;15.20;42.10;;;;;;5112806;28;21129;-66
2024/03/11 07:51:06;;;;;;;4.33;2.00;;;15.50;43.10;;;;;;5112883;28;20430;-66
2024/03/11 07:53:34;;;;;;;3.57;1.60;;;15.40;41.00;;;;;;5112799;28;20422;-66
2024/03/11 07:56:04;;;;;;;3.27;1.80;;;15.70;40.80;;;;;;5113241;28;20439;-66
2024/03/11 07:58:34;;;;;;;4.97;2.10;;;16.10;41.70;;;;;;5112201;28;20521;-66
2024/03/11 08:04:30;;;;;;;3.23;1.63;;;17.20;38.90;;;;;;5112178;28;20455;-66
2024/03/11 08:06:57;;;;;;;2.60;1.50;;;17.90;38.20;;;;;;5113532;28;20428;-66
2024/03/11 08:09:28;;;;;;;3.50;1.77;;;18.30;37.50;;;;;;5111810;28;20471;-68
2024/03/11 08:11:57;;;;;;;2.63;1.67;;;18.80;35.70;;;;;;5110732;28;20784;-67
2024/03/11 08:14:29;;;;;;;2.83;1.40;;;19.10;34.40;;;;;;5111947;28;20453;-66
2024/03/11 08:16:57;;;;;;;3.03;1.70;;;19.50;34.60;;;;;;5109485;28;20461;-67
2024/03/11 08:19:27;;;;;;;2.93;1.80;;;19.90;33.90;;;;;;5103047;28;20534;-67
2024/03/11 08:21:54;;;;;;;2.90;1.50;;;20.40;34.00;;;;;;5092570;28;20482;-67
2024/03/11 08:27:48;;;;;;;2.30;1.00;;;21.40;30.10;;;;;;5089736;28;20402;-67
2024/03/11 08:33:37;;;;;;;3.47;0.77;;;22.10;30.30;;;;;;5092628;28;20390;-67
2024/03/11 08:36:04;;;;;;;2.30;0.90;;;22.50;29.00;;;;;;5091284;28;20423;-67
2024/03/11 08:38:32;;;;;;;2.37;0.83;;;22.70;28.80;;;;;;5091891;28;20739;-67
2024/03/11 08:44:22;;;;;;;3.10;1.20;;;23.10;27.70;;;;;;5088797;28;20546;-67
2024/03/11 08:47:43;;;;;;;2.37;0.70;;;23.40;27.60;;;;;;5101424;28;20743;-67
2024/03/11 08:50:12;;;;;;;2.20;0.83;;;23.70;26.60;;;;;;5092082;28;20518;-67
2024/03/11 08:52:39;;;;;;;2.20;0.90;;;23.90;26.10;;;;;;5093168;28;20533;-68
2024/03/11 08:55:06;;;;;;;3.00;1.00;;;24.10;26.30;;;;;;5098763;28;20756;-68
2024/03/11 08:57:34;;;;;;;2.07;0.70;;;24.30;25.80;;;;;;5113178;28;20431;-67
2024/03/11 09:00:07;;;;;;;6.00;1.20;;;24.60;25.10;;;;;;5093865;28;20445;-67
2024/03/11 09:02:39;;;;;;;1.97;0.70;;;24.80;24.60;;;;;;5093081;28;20838;-67
2024/03/11 09:05:12;;;;;;;2.20;0.87;;;24.90;25.20;;;;;;5092600;28;20420;-68
2024/03/11 09:07:40;;;;;;;2.43;0.83;;;25.10;25.20;;;;;;5092450;28;20430;-68
2024/03/11 09:10:09;;;;;;;2.30;0.90;;;25.20;24.40;;;;;;5093121;28;20482;-68
2024/03/11 09:12:37;;;;;;;2.57;0.80;;;25.30;24.60;;;;;;5093128;28;20431;-67
2024/03/11 09:15:12;;;;;;;2.10;0.70;;;25.50;23.70;;;;;;5093147;28;20463;-67
2024/03/11 09:17:41;;;;;;;2.70;0.70;;;25.60;23.50;;;;;;5093249;28;20418;-68
2024/03/11 09:20:15;;;;;;;4.40;0.93;;;25.80;23.50;;;;;;5107357;28;20480;-67
2024/03/11 09:22:45;;;;;;;3.07;0.80;;;25.90;23.80;;;;;;5113384;28;20429;-68
2024/03/11 09:25:15;;;;;;;2.03;0.70;;;26.10;22.90;;;;;;5113547;28;20429;-67
2024/03/11 09:27:45;;;;;;;2.10;0.80;;;26.30;22.60;;;;;;5113530;28;20422;-67
2024/03/11 09:30:14;;;;;;;3.07;0.67;;;26.40;22.20;;;;;;5113325;28;20525;-68
2024/03/11 09:32:43;;;;;;;4.77;0.80;;;26.60;21.70;;;;;;5113308;28;20432;-67
2024/03/11 09:35:11;;;;;;;2.43;0.80;;;26.60;21.00;;;;;;5113247;28;20961;-68
2024/03/11 09:37:39;;;;;;;2.97;0.80;;;26.70;22.30;;;;;;5113222;28;20445;-68
2024/03/11 09:40:09;;;;;;;3.00;1.10;;;26.90;22.40;;;;;;5112926;28;20461;-67
2024/03/11 09:42:41;;;;;;;7.97;0.90;;;27.40;22.20;;;;;;5112945;28;20415;-68
2024/03/11 09:45:10;;;;;;;3.23;0.70;;;27.80;21.60;;;;;;5113349;28;20418;-68
2024/03/11 09:47:41;;;;;;;4.70;0.60;;;28.10;21.20;;;;;;5113272;28;20434;-68
2024/03/11 09:50:11;;;;;;;2.63;0.60;;;28.40;19.80;;;;;;5113138;28;20510;-67
2024/03/11 09:52:39;;;;;;;3.47;1.10;;;28.50;19.90;;;;;;5117058;28;20426;-67
2024/03/11 09:55:07;;;;;;;2.37;0.60;;;28.80;19.70;;;;;;5116973;28;20826;-67
2024/03/11 09:57:37;;;;;;;2.20;0.60;;;29.00;19.60;;;;;;5116544;28;21002;-67
2024/03/11 10:00:12;;;;;;;3.03;0.70;;;29.30;19.60;;;;;;5116525;28;20453;-67
2024/03/11 10:02:48;;;;;;;3.80;0.80;;;29.60;19.10;;;;;;5116507;28;20418;-67
2024/03/11 10:05:16;;;;;;;2.10;0.70;;;30.00;19.00;;;;;;5116452;28;20422;-66
2024/03/11 10:07:44;;;;;;;2.57;0.97;;;30.40;18.30;;;;;;5116617;28;20452;-67
2024/03/11 10:10:13;;;;;;;1.90;0.60;;;30.70;19.00;;;;;;5116281;28;20490;-67
2024/03/11 10:12:52;;;;;;;2.47;0.87;;;31.00;17.80;;;;;;5116618;28;20430;-67
2024/03/11 10:15:29;;;;;;;3.57;1.10;;;31.10;17.50;;;;;;5116486;28;20541;-67
2024/03/11 10:18:25;;;;;;;2.23;0.87;;;31.30;17.20;;;;;;5116482;28;20505;-67
2024/03/11 10:20:57;;;;;;;3.03;1.00;;;31.30;16.60;;;;;;5096192;28;20503;-67
2024/03/11 10:23:25;;;;;;;2.60;1.00;;;31.20;15.60;;;;;;5095719;28;20502;-66
2024/03/11 10:26:12;;;;;;;2.20;0.80;;;30.80;15.80;;;;;;5095950;28;20458;-67
2024/03/11 10:28:40;;;;;;;2.37;0.70;;;30.90;16.50;;;;;;5096105;28;20419;-66
2024/03/11 10:31:20;;;;;;;2.40;1.00;;;31.00;16.90;;;;;;5095832;28;20517;-66
2024/03/11 10:33:52;;;;;;;2.63;0.83;;;31.30;17.00;;;;;;5095526;28;20749;-67
2024/03/11 10:36:24;;;;;;;3.33;1.10;;;31.50;16.20;;;;;;5095960;28;20506;-68
2024/03/11 10:38:54;;;;;;;3.07;1.10;;;31.50;16.10;;;;;;5095696;28;20436;-67
2024/03/11 10:41:23;;;;;;;2.50;0.87;;;31.50;16.60;;;;;;5095227;28;20976;-68
2024/03/11 10:43:51;;;;;;;2.47;0.93;;;31.70;17.00;;;;;;5095858;28;20435;-68
2024/03/11 10:46:20;;;;;;;3.30;0.90;;;31.80;16.60;;;;;;5095995;28;20435;-67
2024/03/11 10:48:50;;;;;;;2.20;0.90;;;31.90;15.90;;;;;;5095274;28;20463;-67
2024/03/11 10:51:21;;;;;;;2.43;0.70;;;32.00;16.30;;;;;;5095400;28;20762;-67
2024/03/11 10:53:50;;;;;;;2.67;0.93;;;32.20;16.10;;;;;;5094966;28;20462;-67
2024/03/11 10:56:23;;;;;;;3.90;0.90;;;32.40;15.70;;;;;;5095085;28;20514;-67
2024/03/11 10:58:54;;;;;;;2.93;0.80;;;32.60;15.30;;;;;;5095432;28;20415;-67
2024/03/11 11:01:32;;;;;;;2.57;0.80;;;32.80;15.50;;;;;;5094965;28;20415;-67
2024/03/11 11:04:06;;;;;;;2.47;0.83;;;32.90;15.30;;;;;;5094920;28;20510;-67
2024/03/11 11:06:34;;;;;;;2.30;0.90;;;33.10;15.90;;;;;;5095220;28;20415;-67
2024/03/11 11:09:11;;;;;;;2.37;0.80;;;33.30;15.80;;;;;;5094837;28;20478;-67
2024/03/11 11:11:42;;;;;;;2.70;1.20;;;33.40;14.70;;;;;;5094714;28;20419;-66
2024/03/11 11:14:11;;;;;;;2.40;0.80;;;33.20;14.00;;;;;;5095052;28;20553;-66
2024/03/11 11:16:43;;;;;;;2.77;1.07;;;32.70;14.60;;;;;;5095017;28;20481;-66
2024/03/11 11:19:14;;;;;;;2.33;1.03;;;32.20;15.10;;;;;;5106806;27;20457;-67
2024/03/11 11:21:44;;;;;;;2.13;0.80;;;31.40;14.80;;;;;;5135927;27;20834;-67
2024/03/11 11:24:28;;;;;;;2.13;0.87;;;31.00;15.40;;;;;;5135437;27;20498;-67
2024/03/11 11:26:59;;;;;;;2.07;0.73;;;30.40;15.20;;;;;;5135657;27;20891;-67
2024/03/11 11:29:27;;;;;;;4.93;0.90;;;29.40;15.70;;;;;;5135315;27;20898;-67
2024/03/11 11:32:04;;;;;;;2.93;0.90;;;28.70;16.30;;;;;;5135599;27;20433;-66
2024/03/11 11:34:55;;;;;;;1.97;0.63;;;27.90;17.10;;;;;;5135782;27;20881;-66
2024/03/11 11:37:36;;;;;;;2.40;0.87;;;27.40;17.60;;;;;;5135783;27;20421;-66
2024/03/11 11:40:33;;;;;;;2.10;0.70;;;27.50;18.40;;;;;;5135540;27;20433;-66
2024/03/11 11:43:04;;;;;;;2.40;1.00;;;27.20;18.30;;;;;;5135578;27;20410;-66
2024/03/11 11:45:46;;;;;;;4.57;1.00;;;26.90;18.80;;;;;;5135083;27;20838;-66
2024/03/11 11:48:16;;;;;;;4.27;0.93;;;26.80;19.10;;;;;;5132599;27;20513;-66
2024/03/11 11:50:45;;;;;;;1.90;0.60;;;26.60;18.70;;;;;;5135220;27;20444;-66
2024/03/11 11:53:14;;;;;;;2.50;0.80;;;26.20;18.80;;;;;;5134937;27;20427;-66
2024/03/11 11:55:51;;;;;;;3.30;1.00;;;25.60;18.90;;;;;;5134993;27;20854;-66
2024/03/11 11:58:18;;;;;;;2.50;0.80;;;25.00;19.80;;;;;;5135262;27;20453;-65
2024/03/11 12:00:46;;;;;;;2.93;0.80;;;24.50;20.20;;;;;;5134689;27;20482;-66
2024/03/11 12:03:27;;;;;;;2.80;0.73;;;24.10;21.20;;;;;;5135176;27;20457;-66
2024/03/11 12:06:11;;;;;;;3.03;0.90;;;24.00;21.10;;;;;;5135039;27;20413;-66
2024/03/11 12:08:41;;;;;;;2.63;0.80;;;23.70;21.20;;;;;;5134704;27;20418;-66
2024/03/11 12:11:12;;;;;;;3.87;1.57;;;23.30;20.70;;;;;;5134890;27;20437;-66
2024/03/11 12:13:41;;;;;;;2.33;0.80;;;22.80;21.00;;;;;;5134111;27;20525;-65
2024/03/11 12:16:10;;;;;;;3.30;0.80;;;22.30;21.10;;;;;;5134812;27;20431;-66
2024/03/11 12:18:39;;;;;;;2.37;0.90;;;21.90;22.20;;;;;;5134129;27;20432;-66
2024/03/11 12:21:11;;;;;;;2.77;0.83;;;21.50;22.50;;;;;;5134847;27;20459;-67
2024/03/11 12:23:38;;;;;;;2.80;0.97;;;21.10;22.80;;;;;;5134709;27;20424;-65
2024/03/11 12:26:09;;;;;;;2.30;1.00;;;20.80;22.90;;;;;;5134638;27;20935;-66
2024/03/11 12:28:37;;;;;;;4.00;0.80;;;20.50;23.50;;;;;;5134625;27;20505;-66
2024/03/11 12:31:05;;;;;;;2.40;0.90;;;20.30;23.60;;;;;;5134677;27;20765;-66
2024/03/11 12:33:37;;;;;;;2.70;0.83;;;20.10;23.90;;;;;;5134581;27;20492;-66
2024/03/11 12:36:05;;;;;;;2.30;0.70;;;19.90;24.20;;;;;;5134496;27;20422;-66
2024/03/11 12:38:34;;;;;;;2.20;0.80;;;19.80;25.00;;;;;;5134102;27;20480;-66
2024/03/11 12:41:01;;;;;;;2.27;0.83;;;19.60;25.50;;;;;;5134109;27;20969;-66
2024/03/11 12:43:31;;;;;;;2.10;0.80;;;19.60;25.60;;;;;;5134475;27;20490;-66
2024/03/11 12:46:00;;;;;;;2.50;1.00;;;19.80;26.30;;;;;;5134337;27;20795;-67
2024/03/11 12:48:28;;;;;;;2.20;0.90;;;20.70;26.40;;;;;;5134382;27;20771;-66
2024/03/11 12:50:57;;;;;;;3.10;0.77;;;21.70;25.70;;;;;;5133954;27;20429;-66
2024/03/11 12:53:25;;;;;;;1.90;0.70;;;22.60;23.80;;;;;;5134314;27;20761;-67
2024/03/11 12:56:03;;;;;;;2.23;0.70;;;23.30;23.60;;;;;;5134375;28;20991;-66
2024/03/11 12:58:33;;;;;;;3.27;0.80;;;24.00;22.50;;;;;;5134430;28;20474;-67
2024/03/11 13:01:03;;;;;;;2.37;0.60;;;24.60;21.80;;;;;;5134223;28;20429;-67
2024/03/11 13:03:31;;;;;;;2.23;0.90;;;24.90;21.00;;;;;;5134296;28;20500;-66
2024/03/11 13:06:01;;;;;;;2.07;0.60;;;24.90;21.30;;;;;;5133919;28;20521;-67
2024/03/11 13:08:29;;;;;;;2.27;0.80;;;25.00;20.70;;;;;;5133846;28;20430;-67
2024/03/11 13:11:08;;;;;;;2.33;0.67;;;24.90;20.40;;;;;;5133706;28;21080;-67
2024/03/11 13:13:36;;;;;;;2.10;0.60;;;24.50;20.10;;;;;;5134428;28;20449;-67
2024/03/11 13:16:04;;;;;;;3.57;0.80;;;23.90;20.50;;;;;;5133626;28;20506;-67
2024/03/11 13:18:32;;;;;;;2.00;0.60;;;23.40;21.30;;;;;;5133878;28;20775;-66
2024/03/11 13:21:05;;;;;;;1.90;0.50;;;23.00;21.70;;;;;;5134130;28;20439;-67
2024/03/11 13:23:34;;;;;;;1.70;0.50;;;22.60;21.90;;;;;;5134101;28;20422;-67
2024/03/11 13:26:09;;;;;;;1.90;0.60;;;22.20;22.00;;;;;;5137503;27;20515;-67
2024/03/11 13:28:36;;;;;;;2.63;0.70;;;21.80;22.50;;;;;;5138065;27;20509;-67
2024/03/11 13:31:03;;;;;;;2.93;0.70;;;21.40;22.60;;;;;;5137964;27;20433;-67
2024/03/11 13:33:30;;;;;;;2.73;0.80;;;21.10;23.00;;;;;;5137996;27;20508;-67
2024/03/11 13:35:57;;;;;;;1.97;0.67;;;20.90;23.60;;;;;;5137444;27;20467;-67
2024/03/11 13:38:24;;;;;;;2.40;0.60;;;20.60;23.80;;;;;;5137752;27;20436;-67
2024/03/11 13:40:51;;;;;;;4.10;0.83;;;20.30;24.40;;;;;;5137743;27;20796;-67
2024/03/11 13:43:23;;;;;;;2.40;1.00;;;20.00;23.80;;;;;;5137582;27;20433;-67
2024/03/11 13:45:51;;;;;;;2.03;0.80;;;19.80;24.20;;;;;;5137424;27;20504;-67
2024/03/11 13:48:19;;;;;;;2.57;0.93;;;19.60;24.00;;;;;;5137281;27;20485;-66
2024/03/11 13:50:47;;;;;;;2.27;1.17;;;19.40;24.10;;;;;;5137640;27;20433;-66
2024/03/11 13:53:14;;;;;;;2.67;0.90;;;19.30;24.30;;;;;;5137278;27;20920;-67
2024/03/11 13:55:43;;;;;;;2.93;0.90;;;19.10;24.70;;;;;;5137506;27;20457;-66
2024/03/11 13:58:10;;;;;;;2.00;0.80;;;19.00;25.60;;;;;;5137442;27;20512;-67
2024/03/11 14:00:40;;;;;;;3.30;0.90;;;18.90;25.30;;;;;;5137007;27;20436;-67
2024/03/11 14:03:10;;;;;;;2.57;0.80;;;18.80;25.40;;;;;;5137474;27;20470;-66
2024/03/11 14:05:37;;;;;;;2.13;0.80;;;18.70;26.00;;;;;;5137301;27;20602;-66
2024/03/11 14:08:04;;;;;;;2.10;0.83;;;18.60;25.80;;;;;;5137224;27;20465;-66
2024/03/11 14:10:31;;;;;;;2.50;0.90;;;18.60;25.90;;;;;;5136873;27;20457;-67
2024/03/11 14:13:00;;;;;;;7.13;1.90;;;18.50;25.80;;;;;;5136908;27;20440;-66
2024/03/11 14:15:29;;;;;;;2.00;0.77;;;18.40;26.10;;;;;;5137015;27;20464;-67
2024/03/11 14:17:58;;;;;;;2.20;0.80;;;18.30;26.10;;;;;;5136692;27;20429;-67
2024/03/11 14:20:30;;;;;;;2.50;0.80;;;18.20;25.80;;;;;;5136619;27;20507;-67
2024/03/11 14:22:58;;;;;;;3.70;1.10;;;18.10;26.40;;;;;;5137003;27;20421;-67
2024/03/11 14:25:27;;;;;;;2.60;1.10;;;18.10;26.90;;;;;;5136872;27;20429;-67
2024/03/11 14:27:54;;;;;;;2.00;0.87;;;18.10;26.70;;;;;;5136611;27;20436;-65
2024/03/11 14:30:24;;;;;;;2.43;0.80;;;18.00;27.10;;;;;;5136797;27;20428;-66
2024/03/11 14:32:52;;;;;;;2.67;0.90;;;17.90;27.30;;;;;;5136733;27;20493;-66
2024/03/11 14:35:26;;;;;;;1.90;0.80;;;17.90;26.90;;;;;;5136634;27;20470;-66
2024/03/11 14:37:55;;;;;;;2.30;1.00;;;17.80;27.30;;;;;;5136073;27;20424;-66
2024/03/11 14:40:31;;;;;;;2.20;1.10;;;17.70;27.50;;;;;;5136694;27;20433;-66
2024/03/11 14:42:58;;;;;;;2.03;0.90;;;17.70;27.70;;;;;;5136563;27;20416;-66
2024/03/11 14:45:26;;;;;;;2.87;0.93;;;17.60;27.90;;;;;;5136564;27;20510;-66
2024/03/11 14:47:53;;;;;;;2.73;0.80;;;17.60;28.00;;;;;;5136182;27;20929;-66
2024/03/11 14:50:21;;;;;;;1.83;0.60;;;17.50;28.00;;;;;;5136619;27;20482;-66
2024/03/11 14:52:49;;;;;;;3.10;0.87;;;17.40;28.00;;;;;;5136447;27;20477;-66
2024/03/11 14:55:16;;;;;;;2.40;1.00;;;17.40;28.20;;;;;;5135915;27;20966;-66
2024/03/11 14:57:47;;;;;;;2.23;1.00;;;17.30;27.90;;;;;;5136043;27;20525;-66
2024/03/11 15:00:20;;;;;;;3.00;0.97;;;17.30;28.40;;;;;;5136088;27;20538;-66
2024/03/11 15:02:48;;;;;;;3.17;1.03;;;17.20;28.60;;;;;;5136046;27;20428;-66
2024/03/11 15:05:18;;;;;;;2.30;1.10;;;17.20;29.00;;;;;;5136073;27;20519;-66
2024/03/11 15:07:56;;;;;;;2.20;1.17;;;17.10;29.40;;;;;;5135739;27;20428;-67
2024/03/11 15:10:24;;;;;;;3.07;1.07;;;17.10;29.50;;;;;;5136374;27;20929;-66
2024/03/11 15:12:51;;;;;;;2.10;0.80;;;17.00;29.70;;;;;;5135740;27;20469;-66
2024/03/11 15:15:20;;;;;;;2.20;0.80;;;16.90;29.20;;;;;;5135975;27;20464;-66
2024/03/11 15:17:47;;;;;;;3.23;0.73;;;16.90;29.30;;;;;;5135947;27;20794;-66
2024/03/11 15:20:14;;;;;;;2.33;1.00;;;16.80;29.40;;;;;;5135374;27;21027;-67
2024/03/11 15:22:41;;;;;;;4.20;1.20;;;16.70;29.90;;;;;;5135827;27;20477;-65
2024/03/11 15:25:10;;;;;;;2.67;1.10;;;16.60;29.50;;;;;;5135730;27;20434;-66
2024/03/11 15:27:38;;;;;;;2.10;1.10;;;16.60;29.40;;;;;;5135659;27;20467;-66
2024/03/11 15:30:07;;;;;;;1.90;0.73;;;16.50;29.60;;;;;;5135693;27;20442;-66
2024/03/11 15:32:34;;;;;;;2.27;0.87;;;16.50;29.90;;;;;;5135576;27;20478;-66
2024/03/11 15:35:07;;;;;;;3.17;1.10;;;16.40;29.90;;;;;;5135577;27;20647;-65
2024/03/11 15:37:36;;;;;;;2.30;1.20;;;16.30;30.10;;;;;;5135480;27;20430;-66
2024/03/11 15:40:05;;;;;;;2.40;1.03;;;16.20;30.00;;;;;;5135584;27;20788;-66
2024/03/11 15:42:34;;;;;;;3.33;0.80;;;16.10;29.80;;;;;;5135142;27;20435;-66
2024/03/11 15:45:01;;;;;;;3.57;1.00;;;16.10;30.40;;;;;;5135605;27;20516;-66
2024/03/11 15:47:29;;;;;;;2.13;0.90;;;16.00;30.70;;;;;;5135121;27;20521;-66
2024/03/11 15:49:57;;;;;;;2.30;0.90;;;15.90;30.60;;;;;;5134537;27;20431;-66
2024/03/11 15:52:23;;;;;;;3.13;1.00;;;15.90;30.30;;;;;;5135231;27;20776;-67
2024/03/11 15:54:51;;;;;;;2.20;1.10;;;15.80;30.50;;;;;;5135106;27;20483;-67
2024/03/11 15:57:21;;;;;;;2.27;1.00;;;15.70;30.40;;;;;;5136179;27;20503;-66
2024/03/11 15:59:53;;;;;;;3.87;1.30;;;15.70;30.40;;;;;;5135655;27;20444;-66
2024/03/11 16:02:21;;;;;;;2.47;0.93;;;15.70;30.00;;;;;;5136776;27;20808;-66
2024/03/11 16:04:48;;;;;;;6.50;1.30;;;15.70;30.00;;;;;;5134979;27;20522;-66
2024/03/11 16:07:15;;;;;;;2.37;1.03;;;15.60;31.00;;;;;;5134611;27;20463;-66
2024/03/11 16:12:26;;;;;;;2.80;1.50;;;15.60;31.50;;;;;;5134720;27;20396;-67
2024/03/11 16:14:53;;;;;;;2.13;0.83;;;15.60;30.90;;;;;;5134864;27;20474;-66
2024/03/11 16:17:21;;;;;;;3.10;1.40;;;15.60;31.40;;;;;;5134809;27;20432;-66
2024/03/11 16:19:48;;;;;;;2.30;1.00;;;15.50;31.30;;;;;;5134334;27;20469;-66